sensor_id;sensor_type;location;lat;lon;timestamp;P1;durP1;ratioP1;P2;durP2;ratioP2
21181;SDS011;10749;46.296;7.524;2024-03-23T00:54:12;2.10;;;1.20;;
21181;SDS011;10749;46.296;7.524;2024-03-23T00:56:37;2.97;;;1.40;;
21181;SDS011;10749;46.296;7.524;2024-03-23T00:59:02;2.03;;;1.30;;
21181;SDS011;10749;46.296;7.524;2024-03-23T01:01:27;3.10;;;1.23;;
21181;SDS011;10749;46.296;7.524;2024-03-23T01:03:53;4.33;;;1.57;;
21181;SDS011;10749;46.296;7.524;2024-03-23T01:06:18;3.63;;;1.50;;
21181;SDS011;10749;46.296;7.524;2024-03-23T01:08:43;2.90;;;1.30;;
21181;SDS011;10749;46.296;7.524;2024-03-23T01:11:09;4.70;;;1.50;;
21181;SDS011;10749;46.296;7.524;2024-03-23T01:13:34;2.77;;;1.50;;
21181;SDS011;10749;46.296;7.524;2024-03-23T01:15:59;4.93;;;1.57;;
21181;SDS011;10749;46.296;7.524;2024-03-23T01:18:24;3.33;;;1.47;;
21181;SDS011;10749;46.296;7.524;2024-03-23T01:20:51;5.83;;;1.50;;
21181;SDS011;10749;46.296;7.524;2024-03-23T01:23:17;3.33;;;1.60;;
21181;SDS011;10749;46.296;7.524;2024-03-23T01:25:42;3.47;;;1.47;;
21181;SDS011;10749;46.296;7.524;2024-03-23T01:28:08;2.73;;;1.60;;
21181;SDS011;10749;46.296;7.524;2024-03-23T01:30:33;2.37;;;1.50;;
21181;SDS011;10749;46.296;7.524;2024-03-23T01:32:59;2.13;;;1.40;;
21181;SDS011;10749;46.296;7.524;2024-03-23T01:35:25;3.63;;;1.57;;
21181;SDS011;10749;46.296;7.524;2024-03-23T01:37:50;2.10;;;1.43;;
21181;SDS011;10749;46.296;7.524;2024-03-23T01:40:18;2.87;;;1.33;;
21181;SDS011;10749;46.296;7.524;2024-03-23T01:43:05;5.50;;;1.60;;
21181;SDS011;10749;46.296;7.524;2024-03-23T01:45:32;3.63;;;1.50;;
21181;SDS011;10749;46.296;7.524;2024-03-23T01:47:58;1.93;;;1.20;;
21181;SDS011;10749;46.296;7.524;2024-03-23T01:50:24;2.60;;;1.40;;
21181;SDS011;10749;46.296;7.524;2024-03-23T01:52:50;2.17;;;1.20;;
21181;SDS011;10749;46.296;7.524;2024-03-23T01:55:15;4.37;;;1.40;;
21181;SDS011;10749;46.296;7.524;2024-03-23T01:57:41;2.80;;;1.30;;
21181;SDS011;10749;46.296;7.524;2024-03-23T02:00:06;2.93;;;1.60;;
21181;SDS011;10749;46.296;7.524;2024-03-23T02:02:33;2.50;;;1.00;;
21181;SDS011;10749;46.296;7.524;2024-03-23T02:04:58;3.13;;;1.50;;
21181;SDS011;10749;46.296;7.524;2024-03-23T02:07:24;4.80;;;1.40;;
21181;SDS011;10749;46.296;7.524;2024-03-23T02:09:50;3.37;;;1.80;;
21181;SDS011;10749;46.296;7.524;2024-03-23T02:12:16;3.17;;;1.20;;
21181;SDS011;10749;46.296;7.524;2024-03-23T02:14:42;3.70;;;1.43;;
21181;SDS011;10749;46.296;7.524;2024-03-23T02:17:08;4.57;;;1.30;;
21181;SDS011;10749;46.296;7.524;2024-03-23T02:19:34;4.33;;;1.30;;
21181;SDS011;10749;46.296;7.524;2024-03-23T02:21:59;3.03;;;1.40;;
21181;SDS011;10749;46.296;7.524;2024-03-23T02:24:24;1.87;;;1.20;;
21181;SDS011;10749;46.296;7.524;2024-03-23T02:26:50;1.47;;;1.07;;
21181;SDS011;10749;46.296;7.524;2024-03-23T02:29:15;2.40;;;1.10;;
21181;SDS011;10749;46.296;7.524;2024-03-23T02:31:40;4.73;;;1.50;;
21181;SDS011;10749;46.296;7.524;2024-03-23T02:34:06;3.03;;;1.20;;
21181;SDS011;10749;46.296;7.524;2024-03-23T02:36:31;2.47;;;1.00;;
21181;SDS011;10749;46.296;7.524;2024-03-23T02:38:56;1.80;;;1.03;;
21181;SDS011;10749;46.296;7.524;2024-03-23T02:41:22;2.13;;;1.10;;
21181;SDS011;10749;46.296;7.524;2024-03-23T02:43:52;1.70;;;1.00;;
21181;SDS011;10749;46.296;7.524;2024-03-23T02:46:17;3.20;;;1.10;;
21181;SDS011;10749;46.296;7.524;2024-03-23T02:48:44;2.30;;;1.17;;
21181;SDS011;10749;46.296;7.524;2024-03-23T02:51:09;3.73;;;1.27;;
21181;SDS011;10749;46.296;7.524;2024-03-23T02:53:34;2.67;;;1.10;;
21181;SDS011;10749;46.296;7.524;2024-03-23T02:56:00;3.67;;;1.23;;
21181;SDS011;10749;46.296;7.524;2024-03-23T02:58:25;9.53;;;1.30;;
21181;SDS011;10749;46.296;7.524;2024-03-23T03:00:50;3.43;;;1.20;;
21181;SDS011;10749;46.296;7.524;2024-03-23T03:03:16;3.57;;;1.43;;
21181;SDS011;10749;46.296;7.524;2024-03-23T03:05:41;3.07;;;1.30;;
21181;SDS011;10749;46.296;7.524;2024-03-23T03:08:06;2.50;;;1.33;;
21181;SDS011;10749;46.296;7.524;2024-03-23T03:10:32;3.63;;;1.30;;
21181;SDS011;10749;46.296;7.524;2024-03-23T03:13:00;3.47;;;1.43;;
21181;SDS011;10749;46.296;7.524;2024-03-23T03:15:25;3.73;;;1.50;;
21181;SDS011;10749;46.296;7.524;2024-03-23T03:17:50;2.37;;;1.40;;
21181;SDS011;10749;46.296;7.524;2024-03-23T03:20:16;3.77;;;1.60;;
21181;SDS011;10749;46.296;7.524;2024-03-23T03:22:42;4.40;;;1.50;;
21181;SDS011;10749;46.296;7.524;2024-03-23T03:25:08;4.60;;;1.50;;
21181;SDS011;10749;46.296;7.524;2024-03-23T03:27:33;6.10;;;1.80;;
21181;SDS011;10749;46.296;7.524;2024-03-23T03:29:59;3.37;;;1.50;;
21181;SDS011;10749;46.296;7.524;2024-03-23T03:32:27;4.17;;;1.50;;
21181;SDS011;10749;46.296;7.524;2024-03-23T03:34:53;4.13;;;1.83;;
21181;SDS011;10749;46.296;7.524;2024-03-23T03:37:18;2.30;;;1.50;;
21181;SDS011;10749;46.296;7.524;2024-03-23T03:39:43;2.47;;;1.37;;
21181;SDS011;10749;46.296;7.524;2024-03-23T03:42:09;2.23;;;1.40;;
21181;SDS011;10749;46.296;7.524;2024-03-23T03:44:34;2.77;;;1.40;;
21181;SDS011;10749;46.296;7.524;2024-03-23T03:47:01;3.53;;;1.47;;
21181;SDS011;10749;46.296;7.524;2024-03-23T03:49:27;4.80;;;1.53;;
21181;SDS011;10749;46.296;7.524;2024-03-23T03:51:52;2.47;;;1.47;;
21181;SDS011;10749;46.296;7.524;2024-03-23T03:54:17;3.13;;;1.50;;
21181;SDS011;10749;46.296;7.524;2024-03-23T03:56:43;2.77;;;1.37;;
21181;SDS011;10749;46.296;7.524;2024-03-23T03:59:08;2.20;;;1.30;;
21181;SDS011;10749;46.296;7.524;2024-03-23T04:01:34;3.33;;;1.80;;
21181;SDS011;10749;46.296;7.524;2024-03-23T04:04:00;4.73;;;2.10;;
21181;SDS011;10749;46.296;7.524;2024-03-23T04:06:25;3.83;;;1.77;;
21181;SDS011;10749;46.296;7.524;2024-03-23T04:08:51;1.80;;;1.33;;
21181;SDS011;10749;46.296;7.524;2024-03-23T04:11:16;2.70;;;1.50;;
21181;SDS011;10749;46.296;7.524;2024-03-23T04:13:41;1.60;;;1.30;;
21181;SDS011;10749;46.296;7.524;2024-03-23T04:16:08;1.87;;;1.10;;
21181;SDS011;10749;46.296;7.524;2024-03-23T04:18:34;2.00;;;1.10;;
21181;SDS011;10749;46.296;7.524;2024-03-23T04:20:59;3.60;;;1.37;;
21181;SDS011;10749;46.296;7.524;2024-03-23T04:23:25;3.37;;;1.13;;
21181;SDS011;10749;46.296;7.524;2024-03-23T04:25:50;3.47;;;1.53;;
21181;SDS011;10749;46.296;7.524;2024-03-23T04:28:17;1.40;;;1.10;;
21181;SDS011;10749;46.296;7.524;2024-03-23T04:30:42;1.10;;;0.90;;
21181;SDS011;10749;46.296;7.524;2024-03-23T04:33:07;3.00;;;1.10;;
21181;SDS011;10749;46.296;7.524;2024-03-23T04:35:33;4.10;;;1.27;;
21181;SDS011;10749;46.296;7.524;2024-03-23T04:37:58;3.00;;;1.50;;
21181;SDS011;10749;46.296;7.524;2024-03-23T04:40:24;4.47;;;1.73;;
21181;SDS011;10749;46.296;7.524;2024-03-23T04:42:50;4.77;;;1.83;;
21181;SDS011;10749;46.296;7.524;2024-03-23T04:45:19;2.23;;;1.50;;
21181;SDS011;10749;46.296;7.524;2024-03-23T04:47:44;2.47;;;1.70;;
21181;SDS011;10749;46.296;7.524;2024-03-23T04:50:10;2.97;;;1.77;;
21181;SDS011;10749;46.296;7.524;2024-03-23T04:52:38;3.50;;;1.60;;
21181;SDS011;10749;46.296;7.524;2024-03-23T04:55:06;3.77;;;1.73;;
21181;SDS011;10749;46.296;7.524;2024-03-23T04:57:31;3.63;;;1.63;;
21181;SDS011;10749;46.296;7.524;2024-03-23T04:59:57;2.60;;;1.50;;
21181;SDS011;10749;46.296;7.524;2024-03-23T05:02:23;2.53;;;1.40;;
21181;SDS011;10749;46.296;7.524;2024-03-23T05:04:49;2.50;;;1.43;;
21181;SDS011;10749;46.296;7.524;2024-03-23T05:07:15;3.87;;;1.43;;
21181;SDS011;10749;46.296;7.524;2024-03-23T05:09:40;2.97;;;1.43;;
21181;SDS011;10749;46.296;7.524;2024-03-23T05:12:05;6.33;;;1.63;;
21181;SDS011;10749;46.296;7.524;2024-03-23T05:14:31;1.80;;;1.30;;
21181;SDS011;10749;46.296;7.524;2024-03-23T05:16:57;2.93;;;1.33;;
21181;SDS011;10749;46.296;7.524;2024-03-23T05:19:22;2.30;;;1.30;;
21181;SDS011;10749;46.296;7.524;2024-03-23T05:21:48;3.20;;;1.93;;
21181;SDS011;10749;46.296;7.524;2024-03-23T05:24:13;2.27;;;1.40;;
21181;SDS011;10749;46.296;7.524;2024-03-23T05:26:38;2.00;;;1.33;;
21181;SDS011;10749;46.296;7.524;2024-03-23T05:29:04;2.40;;;1.30;;
21181;SDS011;10749;46.296;7.524;2024-03-23T05:31:29;2.57;;;1.60;;
21181;SDS011;10749;46.296;7.524;2024-03-23T05:33:56;3.13;;;1.80;;
21181;SDS011;10749;46.296;7.524;2024-03-23T05:36:21;2.57;;;1.57;;
21181;SDS011;10749;46.296;7.524;2024-03-23T05:38:46;2.63;;;1.73;;
21181;SDS011;10749;46.296;7.524;2024-03-23T05:41:12;5.10;;;2.63;;
21181;SDS011;10749;46.296;7.524;2024-03-23T05:43:37;8.80;;;3.50;;
21181;SDS011;10749;46.296;7.524;2024-03-23T05:46:03;5.33;;;2.70;;
21181;SDS011;10749;46.296;7.524;2024-03-23T05:48:32;5.53;;;2.57;;
21181;SDS011;10749;46.296;7.524;2024-03-23T05:50:59;6.73;;;2.60;;
21181;SDS011;10749;46.296;7.524;2024-03-23T05:53:25;6.73;;;2.30;;
21181;SDS011;10749;46.296;7.524;2024-03-23T05:55:50;5.00;;;2.27;;
21181;SDS011;10749;46.296;7.524;2024-03-23T05:58:18;3.20;;;2.10;;
21181;SDS011;10749;46.296;7.524;2024-03-23T06:00:45;4.13;;;2.03;;
21181;SDS011;10749;46.296;7.524;2024-03-23T06:03:10;3.43;;;1.90;;
21181;SDS011;10749;46.296;7.524;2024-03-23T06:05:36;3.30;;;1.97;;
21181;SDS011;10749;46.296;7.524;2024-03-23T06:08:02;4.10;;;2.03;;
21181;SDS011;10749;46.296;7.524;2024-03-23T06:10:28;3.40;;;1.70;;
21181;SDS011;10749;46.296;7.524;2024-03-23T06:12:53;2.70;;;1.50;;
21181;SDS011;10749;46.296;7.524;2024-03-23T06:15:19;3.07;;;1.80;;
21181;SDS011;10749;46.296;7.524;2024-03-23T06:17:44;3.57;;;1.87;;
21181;SDS011;10749;46.296;7.524;2024-03-23T06:20:10;3.53;;;1.80;;
21181;SDS011;10749;46.296;7.524;2024-03-23T06:22:35;2.03;;;1.73;;
21181;SDS011;10749;46.296;7.524;2024-03-23T06:25:01;3.33;;;1.97;;
21181;SDS011;10749;46.296;7.524;2024-03-23T06:27:26;3.97;;;1.80;;
21181;SDS011;10749;46.296;7.524;2024-03-23T06:29:52;6.20;;;2.00;;
21181;SDS011;10749;46.296;7.524;2024-03-23T06:32:17;2.73;;;2.20;;
21181;SDS011;10749;46.296;7.524;2024-03-23T06:34:43;4.23;;;1.83;;
21181;SDS011;10749;46.296;7.524;2024-03-23T06:37:08;2.07;;;1.67;;
21181;SDS011;10749;46.296;7.524;2024-03-23T06:39:35;5.40;;;1.93;;
21181;SDS011;10749;46.296;7.524;2024-03-23T06:42:01;3.53;;;1.77;;
21181;SDS011;10749;46.296;7.524;2024-03-23T06:44:27;2.63;;;1.80;;
21181;SDS011;10749;46.296;7.524;2024-03-23T06:46:52;2.57;;;1.57;;
21181;SDS011;10749;46.296;7.524;2024-03-23T06:49:17;3.63;;;1.87;;
21181;SDS011;10749;46.296;7.524;2024-03-23T06:51:44;3.13;;;1.70;;
21181;SDS011;10749;46.296;7.524;2024-03-23T06:54:10;3.13;;;1.80;;
21181;SDS011;10749;46.296;7.524;2024-03-23T06:56:35;4.03;;;1.90;;
21181;SDS011;10749;46.296;7.524;2024-03-23T06:59:01;2.40;;;1.40;;
21181;SDS011;10749;46.296;7.524;2024-03-23T07:01:26;3.50;;;2.40;;
21181;SDS011;10749;46.296;7.524;2024-03-23T07:03:51;3.37;;;2.23;;
21181;SDS011;10749;46.296;7.524;2024-03-23T07:06:17;5.87;;;2.10;;
21181;SDS011;10749;46.296;7.524;2024-03-23T07:08:42;2.67;;;1.97;;
21181;SDS011;10749;46.296;7.524;2024-03-23T07:11:07;4.33;;;2.03;;
21181;SDS011;10749;46.296;7.524;2024-03-23T07:13:32;3.30;;;2.20;;
21181;SDS011;10749;46.296;7.524;2024-03-23T07:15:58;3.50;;;2.33;;
21181;SDS011;10749;46.296;7.524;2024-03-23T07:18:24;3.50;;;2.00;;
21181;SDS011;10749;46.296;7.524;2024-03-23T07:20:56;3.93;;;2.20;;
21181;SDS011;10749;46.296;7.524;2024-03-23T07:23:22;5.13;;;2.10;;
21181;SDS011;10749;46.296;7.524;2024-03-23T07:25:58;3.73;;;2.30;;
21181;SDS011;10749;46.296;7.524;2024-03-23T07:28:30;3.17;;;2.30;;
21181;SDS011;10749;46.296;7.524;2024-03-23T07:33:28;4.17;;;2.30;;
21181;SDS011;10749;46.296;7.524;2024-03-23T07:35:54;5.83;;;2.57;;
21181;SDS011;10749;46.296;7.524;2024-03-23T07:38:19;5.87;;;2.30;;
21181;SDS011;10749;46.296;7.524;2024-03-23T07:40:44;3.37;;;2.20;;
21181;SDS011;10749;46.296;7.524;2024-03-23T07:43:10;5.00;;;2.63;;
21181;SDS011;10749;46.296;7.524;2024-03-23T07:45:35;4.77;;;2.80;;
21181;SDS011;10749;46.296;7.524;2024-03-23T07:48:02;4.90;;;2.47;;
21181;SDS011;10749;46.296;7.524;2024-03-23T07:50:28;4.80;;;2.87;;
21181;SDS011;10749;46.296;7.524;2024-03-23T07:52:53;7.80;;;3.10;;
21181;SDS011;10749;46.296;7.524;2024-03-23T07:55:18;4.07;;;2.20;;
21181;SDS011;10749;46.296;7.524;2024-03-23T07:57:44;3.53;;;2.03;;
21181;SDS011;10749;46.296;7.524;2024-03-23T08:00:09;5.73;;;2.57;;
21181;SDS011;10749;46.296;7.524;2024-03-23T08:02:35;4.03;;;2.10;;
21181;SDS011;10749;46.296;7.524;2024-03-23T08:05:00;7.70;;;2.70;;
21181;SDS011;10749;46.296;7.524;2024-03-23T08:07:25;5.03;;;2.10;;
21181;SDS011;10749;46.296;7.524;2024-03-23T08:09:51;4.23;;;1.93;;
21181;SDS011;10749;46.296;7.524;2024-03-23T08:12:16;3.57;;;1.70;;
21181;SDS011;10749;46.296;7.524;2024-03-23T08:14:41;3.53;;;1.67;;
21181;SDS011;10749;46.296;7.524;2024-03-23T08:17:07;3.70;;;1.80;;
21181;SDS011;10749;46.296;7.524;2024-03-23T08:19:32;3.30;;;1.70;;
21181;SDS011;10749;46.296;7.524;2024-03-23T08:21:57;4.73;;;3.30;;
21181;SDS011;10749;46.296;7.524;2024-03-23T08:24:23;5.23;;;2.40;;
21181;SDS011;10749;46.296;7.524;2024-03-23T08:26:48;3.47;;;2.30;;
21181;SDS011;10749;46.296;7.524;2024-03-23T08:29:13;5.67;;;2.47;;
21181;SDS011;10749;46.296;7.524;2024-03-23T08:31:39;3.27;;;2.13;;
21181;SDS011;10749;46.296;7.524;2024-03-23T08:34:04;4.30;;;1.83;;
21181;SDS011;10749;46.296;7.524;2024-03-23T08:36:29;3.63;;;2.30;;
21181;SDS011;10749;46.296;7.524;2024-03-23T08:38:55;5.73;;;2.33;;
21181;SDS011;10749;46.296;7.524;2024-03-23T08:41:21;3.07;;;2.20;;
21181;SDS011;10749;46.296;7.524;2024-03-23T08:43:46;4.30;;;2.27;;
21181;SDS011;10749;46.296;7.524;2024-03-23T08:46:13;4.17;;;2.40;;
21181;SDS011;10749;46.296;7.524;2024-03-23T08:48:40;3.83;;;2.50;;
21181;SDS011;10749;46.296;7.524;2024-03-23T08:51:14;4.03;;;2.27;;
21181;SDS011;10749;46.296;7.524;2024-03-23T08:53:41;4.00;;;2.33;;
21181;SDS011;10749;46.296;7.524;2024-03-23T08:56:07;5.43;;;2.17;;
21181;SDS011;10749;46.296;7.524;2024-03-23T08:58:33;3.53;;;2.23;;
21181;SDS011;10749;46.296;7.524;2024-03-23T09:01:04;6.70;;;2.70;;
21181;SDS011;10749;46.296;7.524;2024-03-23T09:03:38;4.67;;;2.30;;
21181;SDS011;10749;46.296;7.524;2024-03-23T09:06:10;6.27;;;2.20;;
21181;SDS011;10749;46.296;7.524;2024-03-23T09:08:36;5.43;;;3.20;;
21181;SDS011;10749;46.296;7.524;2024-03-23T09:11:06;7.07;;;2.67;;
21181;SDS011;10749;46.296;7.524;2024-03-23T09:13:33;4.53;;;2.30;;
21181;SDS011;10749;46.296;7.524;2024-03-23T09:15:58;5.27;;;2.80;;
21181;SDS011;10749;46.296;7.524;2024-03-23T09:18:24;6.27;;;2.77;;
21181;SDS011;10749;46.296;7.524;2024-03-23T09:20:50;6.40;;;2.60;;
21181;SDS011;10749;46.296;7.524;2024-03-23T09:23:15;5.63;;;2.87;;
21181;SDS011;10749;46.296;7.524;2024-03-23T09:25:40;5.00;;;2.60;;
21181;SDS011;10749;46.296;7.524;2024-03-23T09:28:06;4.10;;;2.83;;
21181;SDS011;10749;46.296;7.524;2024-03-23T09:30:33;5.87;;;2.73;;
21181;SDS011;10749;46.296;7.524;2024-03-23T09:32:59;3.40;;;2.77;;
21181;SDS011;10749;46.296;7.524;2024-03-23T09:35:25;4.50;;;2.50;;
21181;SDS011;10749;46.296;7.524;2024-03-23T09:37:51;3.20;;;2.67;;
21181;SDS011;10749;46.296;7.524;2024-03-23T09:40:17;3.70;;;2.80;;
21181;SDS011;10749;46.296;7.524;2024-03-23T09:42:42;4.90;;;2.70;;
21181;SDS011;10749;46.296;7.524;2024-03-23T09:45:17;2.50;;;2.27;;
21181;SDS011;10749;46.296;7.524;2024-03-23T09:47:44;3.67;;;2.70;;
21181;SDS011;10749;46.296;7.524;2024-03-23T09:50:12;3.43;;;2.27;;
21181;SDS011;10749;46.296;7.524;2024-03-23T09:52:38;4.60;;;2.93;;
21181;SDS011;10749;46.296;7.524;2024-03-23T09:55:04;4.60;;;2.83;;
21181;SDS011;10749;46.296;7.524;2024-03-23T09:57:29;5.30;;;2.90;;
21181;SDS011;10749;46.296;7.524;2024-03-23T09:59:54;4.60;;;3.00;;
21181;SDS011;10749;46.296;7.524;2024-03-23T10:02:21;3.80;;;2.67;;
21181;SDS011;10749;46.296;7.524;2024-03-23T10:04:47;5.93;;;2.53;;
21181;SDS011;10749;46.296;7.524;2024-03-23T10:07:13;6.07;;;2.50;;
21181;SDS011;10749;46.296;7.524;2024-03-23T10:09:40;3.93;;;2.17;;
21181;SDS011;10749;46.296;7.524;2024-03-23T10:12:12;2.77;;;1.20;;
21181;SDS011;10749;46.296;7.524;2024-03-23T10:14:41;1.73;;;1.20;;
21181;SDS011;10749;46.296;7.524;2024-03-23T10:17:22;2.37;;;1.10;;
21181;SDS011;10749;46.296;7.524;2024-03-23T10:19:49;1.93;;;1.40;;
21181;SDS011;10749;46.296;7.524;2024-03-23T10:22:19;2.40;;;1.20;;
21181;SDS011;10749;46.296;7.524;2024-03-23T10:24:46;1.40;;;1.00;;
21181;SDS011;10749;46.296;7.524;2024-03-23T10:27:15;1.20;;;1.10;;
21181;SDS011;10749;46.296;7.524;2024-03-23T10:29:45;1.80;;;1.10;;
21181;SDS011;10749;46.296;7.524;2024-03-23T10:32:11;7.80;;;1.20;;
21181;SDS011;10749;46.296;7.524;2024-03-23T10:34:37;0.90;;;0.80;;
21181;SDS011;10749;46.296;7.524;2024-03-23T10:37:03;3.40;;;0.60;;
21181;SDS011;10749;46.296;7.524;2024-03-23T10:39:37;1.13;;;0.70;;
21181;SDS011;10749;46.296;7.524;2024-03-23T10:42:04;1.33;;;0.80;;
21181;SDS011;10749;46.296;7.524;2024-03-23T10:44:31;0.90;;;0.77;;
21181;SDS011;10749;46.296;7.524;2024-03-23T10:46:57;3.37;;;0.83;;
21181;SDS011;10749;46.296;7.524;2024-03-23T10:49:27;1.33;;;0.80;;
21181;SDS011;10749;46.296;7.524;2024-03-23T10:51:54;1.10;;;0.83;;
21181;SDS011;10749;46.296;7.524;2024-03-23T10:54:21;0.87;;;0.53;;
21181;SDS011;10749;46.296;7.524;2024-03-23T10:56:48;0.77;;;0.50;;
21181;SDS011;10749;46.296;7.524;2024-03-23T10:59:17;1.03;;;0.60;;
21181;SDS011;10749;46.296;7.524;2024-03-23T11:01:58;3.33;;;0.47;;
21181;SDS011;10749;46.296;7.524;2024-03-23T11:04:34;0.90;;;0.53;;
21181;SDS011;10749;46.296;7.524;2024-03-23T11:07:10;0.80;;;0.40;;
21181;SDS011;10749;46.296;7.524;2024-03-23T11:09:49;2.17;;;0.50;;
21181;SDS011;10749;46.296;7.524;2024-03-23T11:15:01;0.80;;;0.57;;
21181;SDS011;10749;46.296;7.524;2024-03-23T11:17:31;1.50;;;0.60;;
21181;SDS011;10749;46.296;7.524;2024-03-23T11:20:03;0.90;;;0.60;;
21181;SDS011;10749;46.296;7.524;2024-03-23T11:22:48;0.50;;;0.50;;
21181;SDS011;10749;46.296;7.524;2024-03-23T11:25:18;2.20;;;0.50;;
21181;SDS011;10749;46.296;7.524;2024-03-23T11:27:49;0.73;;;0.60;;
21181;SDS011;10749;46.296;7.524;2024-03-23T11:32:41;0.73;;;0.53;;
21181;SDS011;10749;46.296;7.524;2024-03-23T11:35:08;0.90;;;0.60;;
21181;SDS011;10749;46.296;7.524;2024-03-23T11:37:35;1.13;;;0.60;;
21181;SDS011;10749;46.296;7.524;2024-03-23T11:40:18;0.83;;;0.60;;
21181;SDS011;10749;46.296;7.524;2024-03-23T11:42:44;1.03;;;0.63;;
21181;SDS011;10749;46.296;7.524;2024-03-23T11:45:09;1.70;;;0.50;;
21181;SDS011;10749;46.296;7.524;2024-03-23T11:47:35;0.60;;;0.50;;
21181;SDS011;10749;46.296;7.524;2024-03-23T11:50:00;2.30;;;0.50;;
21181;SDS011;10749;46.296;7.524;2024-03-23T11:52:26;1.57;;;0.47;;
21181;SDS011;10749;46.296;7.524;2024-03-23T11:54:51;0.70;;;0.57;;
21181;SDS011;10749;46.296;7.524;2024-03-23T11:57:16;0.67;;;0.43;;
21181;SDS011;10749;46.296;7.524;2024-03-23T11:59:42;0.70;;;0.60;;
21181;SDS011;10749;46.296;7.524;2024-03-23T12:02:12;1.67;;;0.60;;
21181;SDS011;10749;46.296;7.524;2024-03-23T12:04:41;1.00;;;0.50;;
21181;SDS011;10749;46.296;7.524;2024-03-23T12:09:39;0.87;;;0.50;;
21181;SDS011;10749;46.296;7.524;2024-03-23T12:12:07;0.50;;;0.50;;
21181;SDS011;10749;46.296;7.524;2024-03-23T12:14:38;1.53;;;0.50;;
21181;SDS011;10749;46.296;7.524;2024-03-23T12:17:10;1.07;;;0.40;;
21181;SDS011;10749;46.296;7.524;2024-03-23T12:19:39;0.30;;;0.27;;
21181;SDS011;10749;46.296;7.524;2024-03-23T12:22:05;1.60;;;0.47;;
21181;SDS011;10749;46.296;7.524;2024-03-23T12:24:32;0.77;;;0.40;;
21181;SDS011;10749;46.296;7.524;2024-03-23T12:27:02;0.43;;;0.30;;
21181;SDS011;10749;46.296;7.524;2024-03-23T12:29:32;0.90;;;0.50;;
21181;SDS011;10749;46.296;7.524;2024-03-23T12:32:01;0.27;;;0.27;;
21181;SDS011;10749;46.296;7.524;2024-03-23T12:34:27;1.10;;;0.40;;
21181;SDS011;10749;46.296;7.524;2024-03-23T12:36:53;0.50;;;0.37;;
21181;SDS011;10749;46.296;7.524;2024-03-23T12:39:19;0.30;;;0.30;;
21181;SDS011;10749;46.296;7.524;2024-03-23T12:41:46;2.30;;;0.33;;
21181;SDS011;10749;46.296;7.524;2024-03-23T12:44:11;0.50;;;0.40;;
21181;SDS011;10749;46.296;7.524;2024-03-23T12:46:37;1.03;;;0.40;;
21181;SDS011;10749;46.296;7.524;2024-03-23T12:49:03;0.77;;;0.43;;
21181;SDS011;10749;46.296;7.524;2024-03-23T12:51:29;0.93;;;0.40;;
21181;SDS011;10749;46.296;7.524;2024-03-23T12:53:54;0.90;;;0.40;;
21181;SDS011;10749;46.296;7.524;2024-03-23T12:56:19;1.63;;;0.30;;
21181;SDS011;10749;46.296;7.524;2024-03-23T12:58:45;0.80;;;0.50;;
21181;SDS011;10749;46.296;7.524;2024-03-23T13:01:10;0.60;;;0.33;;
21181;SDS011;10749;46.296;7.524;2024-03-23T13:03:35;1.00;;;0.40;;
21181;SDS011;10749;46.296;7.524;2024-03-23T13:06:00;0.80;;;0.57;;
21181;SDS011;10749;46.296;7.524;2024-03-23T13:08:26;0.50;;;0.50;;
21181;SDS011;10749;46.296;7.524;2024-03-23T13:10:52;2.57;;;0.40;;
21181;SDS011;10749;46.296;7.524;2024-03-23T13:13:17;0.70;;;0.30;;
21181;SDS011;10749;46.296;7.524;2024-03-23T13:15:49;0.60;;;0.40;;
21181;SDS011;10749;46.296;7.524;2024-03-23T13:18:17;1.30;;;0.37;;
21181;SDS011;10749;46.296;7.524;2024-03-23T13:20:42;0.83;;;0.50;;
21181;SDS011;10749;46.296;7.524;2024-03-23T13:23:08;0.97;;;0.40;;
21181;SDS011;10749;46.296;7.524;2024-03-23T13:25:33;1.17;;;0.20;;
21181;SDS011;10749;46.296;7.524;2024-03-23T13:27:59;0.57;;;0.30;;
21181;SDS011;10749;46.296;7.524;2024-03-23T13:30:24;0.90;;;0.50;;
21181;SDS011;10749;46.296;7.524;2024-03-23T13:32:49;0.60;;;0.40;;
21181;SDS011;10749;46.296;7.524;2024-03-23T13:35:15;0.57;;;0.40;;
21181;SDS011;10749;46.296;7.524;2024-03-23T13:37:41;0.73;;;0.40;;
21181;SDS011;10749;46.296;7.524;2024-03-23T13:40:06;0.80;;;0.50;;
21181;SDS011;10749;46.296;7.524;2024-03-23T13:42:33;1.07;;;0.50;;
21181;SDS011;10749;46.296;7.524;2024-03-23T13:44:58;0.43;;;0.28;;
21181;SDS011;10749;46.296;7.524;2024-03-23T13:47:23;1.35;;;0.40;;
21181;SDS011;10749;46.296;7.524;2024-03-23T13:49:48;1.93;;;0.63;;
21181;SDS011;10749;46.296;7.524;2024-03-23T13:52:14;1.17;;;0.50;;
21181;SDS011;10749;46.296;7.524;2024-03-23T13:54:39;1.70;;;0.47;;
21181;SDS011;10749;46.296;7.524;2024-03-23T13:57:10;1.23;;;0.60;;
21181;SDS011;10749;46.296;7.524;2024-03-23T13:59:35;0.60;;;0.40;;
21181;SDS011;10749;46.296;7.524;2024-03-23T14:02:01;1.50;;;0.50;;
21181;SDS011;10749;46.296;7.524;2024-03-23T14:04:26;0.83;;;0.40;;
21181;SDS011;10749;46.296;7.524;2024-03-23T14:06:51;1.47;;;0.50;;
21181;SDS011;10749;46.296;7.524;2024-03-23T14:09:17;0.90;;;0.30;;
21181;SDS011;10749;46.296;7.524;2024-03-23T14:11:47;1.93;;;0.40;;
21181;SDS011;10749;46.296;7.524;2024-03-23T14:14:13;0.90;;;0.40;;
21181;SDS011;10749;46.296;7.524;2024-03-23T14:16:38;0.90;;;0.43;;
21181;SDS011;10749;46.296;7.524;2024-03-23T14:19:03;1.83;;;0.60;;
21181;SDS011;10749;46.296;7.524;2024-03-23T14:21:32;3.13;;;0.50;;
21181;SDS011;10749;46.296;7.524;2024-03-23T14:23:57;1.00;;;0.40;;
21181;SDS011;10749;46.296;7.524;2024-03-23T14:26:22;1.00;;;0.40;;
21181;SDS011;10749;46.296;7.524;2024-03-23T14:28:48;2.57;;;0.47;;
21181;SDS011;10749;46.296;7.524;2024-03-23T14:31:14;0.93;;;0.50;;
21181;SDS011;10749;46.296;7.524;2024-03-23T14:33:39;1.47;;;0.50;;
21181;SDS011;10749;46.296;7.524;2024-03-23T14:36:14;1.80;;;0.50;;
21181;SDS011;10749;46.296;7.524;2024-03-23T14:38:40;1.07;;;0.53;;
21181;SDS011;10749;46.296;7.524;2024-03-23T14:41:05;1.27;;;0.60;;
21181;SDS011;10749;46.296;7.524;2024-03-23T14:43:31;1.23;;;0.60;;
21181;SDS011;10749;46.296;7.524;2024-03-23T14:48:34;1.43;;;0.67;;
21181;SDS011;10749;46.296;7.524;2024-03-23T14:51:00;4.27;;;0.67;;
21181;SDS011;10749;46.296;7.524;2024-03-23T14:53:25;2.20;;;0.60;;
21181;SDS011;10749;46.296;7.524;2024-03-23T14:55:54;1.30;;;0.70;;
21181;SDS011;10749;46.296;7.524;2024-03-23T14:58:20;1.87;;;0.50;;
21181;SDS011;10749;46.296;7.524;2024-03-23T15:00:46;1.33;;;0.50;;
21181;SDS011;10749;46.296;7.524;2024-03-23T15:03:11;1.00;;;0.40;;
21181;SDS011;10749;46.296;7.524;2024-03-23T15:05:36;1.67;;;0.67;;
21181;SDS011;10749;46.296;7.524;2024-03-23T15:08:02;1.53;;;0.70;;
21181;SDS011;10749;46.296;7.524;2024-03-23T15:10:28;2.27;;;0.60;;
21181;SDS011;10749;46.296;7.524;2024-03-23T15:12:53;1.10;;;0.50;;
21181;SDS011;10749;46.296;7.524;2024-03-23T15:15:18;2.63;;;0.90;;
21181;SDS011;10749;46.296;7.524;2024-03-23T15:17:44;1.73;;;0.60;;
21181;SDS011;10749;46.296;7.524;2024-03-23T15:20:10;1.63;;;0.70;;
21181;SDS011;10749;46.296;7.524;2024-03-23T15:22:39;2.83;;;1.10;;
21181;SDS011;10749;46.296;7.524;2024-03-23T15:25:04;2.43;;;0.60;;
21181;SDS011;10749;46.296;7.524;2024-03-23T15:27:29;1.27;;;0.60;;
21181;SDS011;10749;46.296;7.524;2024-03-23T15:29:58;2.13;;;0.87;;
21181;SDS011;10749;46.296;7.524;2024-03-23T15:32:23;2.43;;;1.10;;
21181;SDS011;10749;46.296;7.524;2024-03-23T15:34:48;2.93;;;0.70;;
21181;SDS011;10749;46.296;7.524;2024-03-23T15:37:14;1.70;;;0.60;;
21181;SDS011;10749;46.296;7.524;2024-03-23T15:39:40;2.67;;;0.60;;
21181;SDS011;10749;46.296;7.524;2024-03-23T15:42:06;2.40;;;0.67;;
21181;SDS011;10749;46.296;7.524;2024-03-23T15:44:32;1.17;;;0.70;;
21181;SDS011;10749;46.296;7.524;2024-03-23T15:46:57;3.03;;;0.60;;
21181;SDS011;10749;46.296;7.524;2024-03-23T15:49:23;3.03;;;0.70;;